createdAt,value
2022-10-21T00:00:58.961Z,100427.00
2022-10-21T00:03:27.700Z,100427.06
2022-10-21T00:05:55.337Z,100432.41
2022-10-21T00:08:23.507Z,100433.25
2022-10-21T00:10:57.942Z,100421.91
2022-10-21T00:13:27.868Z,100406.09
2022-10-21T00:16:18.272Z,100405.16
2022-10-21T00:18:47.749Z,100397.25
2022-10-21T00:21:21.193Z,100388.38
2022-10-21T00:23:50.035Z,100397.00
2022-10-21T00:26:18.872Z,100398.69
2022-10-21T00:28:46.073Z,100414.41
2022-10-21T00:31:16.437Z,100403.72
2022-10-21T00:33:43.714Z,100406.38
2022-10-21T00:36:15.498Z,100405.41
2022-10-21T00:38:49.545Z,100402.75
2022-10-21T00:41:20.172Z,100416.84
2022-10-21T00:44:01.985Z,100423.16
2022-10-21T00:47:12.065Z,100423.03
2022-10-21T00:49:58.542Z,100415.06
2022-10-21T00:52:26.526Z,100409.84
2022-10-21T00:54:58.461Z,100401.94
2022-10-21T00:57:27.336Z,100388.78
2022-10-21T01:00:00.339Z,100377.25
2022-10-21T01:02:29.277Z,100376.34
2022-10-21T01:05:01.553Z,100374.78
2022-10-21T01:07:29.012Z,100377.53
2022-10-21T01:09:56.105Z,100372.31
2022-10-21T01:13:39.003Z,100373.22
2022-10-21T01:16:33.385Z,100370.69
2022-10-21T01:19:34.837Z,100363.78
2022-10-21T01:22:50.271Z,100365.59
2022-10-21T01:26:03.575Z,100364.53
2022-10-21T01:28:48.536Z,100360.09
2022-10-21T01:31:38.175Z,100359.25
2022-10-21T01:34:41.468Z,100371.53
2022-10-21T01:38:13.914Z,100365.38
2022-10-21T01:41:01.546Z,100358.41
2022-10-21T01:43:55.523Z,100356.63
2022-10-21T01:46:49.100Z,100368.84
2022-10-21T01:49:42.694Z,100360.09
2022-10-21T01:52:12.443Z,100365.25
2022-10-21T01:54:45.976Z,100361.66
2022-10-21T01:57:18.747Z,100364.31
2022-10-21T01:59:46.554Z,100363.56
2022-10-21T02:02:15.965Z,100357.63
2022-10-21T02:04:44.741Z,100351.56
2022-10-21T02:07:11.960Z,100344.50
2022-10-21T02:09:39.194Z,100340.09
2022-10-21T02:12:07.729Z,100338.31
2022-10-21T02:14:46.455Z,100330.47
2022-10-21T02:17:21.767Z,100321.69
2022-10-21T02:19:49.078Z,100323.47
2022-10-21T02:22:21.755Z,100329.72
2022-10-21T02:25:30.119Z,100305.97
2022-10-21T02:27:57.589Z,100297.03
2022-10-21T02:30:25.163Z,100312.00
2022-10-21T02:33:11.372Z,100319.31
2022-10-21T02:35:54.813Z,100314.06
2022-10-21T02:38:44.141Z,100324.56
2022-10-21T02:41:16.549Z,100314.25
2022-10-21T02:44:01.739Z,100311.56
2022-10-21T02:46:42.902Z,100325.50
2022-10-21T02:49:10.538Z,100321.19
2022-10-21T02:51:37.850Z,100319.50
2022-10-21T02:54:05.159Z,100329.22
2022-10-21T02:56:32.377Z,100313.38
2022-10-21T02:58:59.496Z,100323.94
2022-10-21T03:01:27.146Z,100322.13
2022-10-21T03:03:54.601Z,100313.22
2022-10-21T03:06:21.731Z,100299.03
2022-10-21T03:08:48.866Z,100300.03
2022-10-21T03:11:16.068Z,100301.78
2022-10-21T03:13:43.217Z,100295.53
2022-10-21T03:16:10.358Z,100297.34
2022-10-21T03:18:37.611Z,100290.31
2022-10-21T03:21:05.025Z,100294.72
2022-10-21T03:23:32.204Z,100306.19
2022-10-21T03:25:59.357Z,100309.84
2022-10-21T03:28:26.613Z,100309.91
2022-10-21T03:30:55.220Z,100311.56
2022-10-21T03:33:22.412Z,100300.91
2022-10-21T03:35:49.761Z,100308.84
2022-10-21T03:38:16.958Z,100310.44
2022-10-21T03:40:44.138Z,100304.31
2022-10-21T03:43:11.416Z,100303.44
2022-10-21T03:45:38.626Z,100299.88
2022-10-21T03:48:05.962Z,100305.06
2022-10-21T03:50:33.241Z,100307.63
2022-10-21T03:53:01.182Z,100305.78
2022-10-21T03:55:31.485Z,100303.88
2022-10-21T03:57:58.621Z,100306.56
2022-10-21T04:00:27.177Z,100295.97
2022-10-21T04:02:56.863Z,100296.78
2022-10-21T04:05:24.017Z,100301.13
2022-10-21T04:07:53.135Z,100289.69
2022-10-21T04:10:21.263Z,100295.91
2022-10-21T04:12:48.549Z,100301.09
2022-10-21T04:15:15.974Z,100290.75
2022-10-21T04:17:46.880Z,100291.56
2022-10-21T04:20:14.420Z,100279.13
2022-10-21T04:22:41.770Z,100264.22
2022-10-21T04:25:09.344Z,100272.19
2022-10-21T04:27:36.537Z,100258.09
2022-10-21T04:30:04.555Z,100252.06
2022-10-21T04:32:31.678Z,100252.22
2022-10-21T04:34:58.801Z,100259.31
2022-10-21T04:37:26.009Z,100266.53
2022-10-21T04:39:53.164Z,100270.13
2022-10-21T04:42:20.374Z,100276.38
2022-10-21T04:44:47.633Z,100286.09
2022-10-21T04:47:15.109Z,100290.59
2022-10-21T04:49:42.320Z,100290.69
2022-10-21T04:52:09.572Z,100279.31
2022-10-21T04:54:36.818Z,100274.84
2022-10-21T04:57:04.002Z,100267.81
2022-10-21T04:59:31.589Z,100279.31
2022-10-21T05:01:58.837Z,100268.81
2022-10-21T05:04:26.165Z,100265.31
2022-10-21T05:06:53.289Z,100262.63
2022-10-21T05:09:20.688Z,100263.53
2022-10-21T05:11:47.923Z,100252.06
2022-10-21T05:14:17.627Z,100258.25
2022-10-21T05:16:47.210Z,100260.94
2022-10-21T05:19:14.452Z,100262.69
2022-10-21T05:21:41.730Z,100253.84
2022-10-21T05:24:09.212Z,100254.72
2022-10-21T05:26:36.352Z,100253.75
2022-10-21T05:29:03.512Z,100253.81
2022-10-21T05:31:30.763Z,100259.94
2022-10-21T05:33:58.113Z,100259.09
2022-10-21T05:36:25.644Z,100250.44
2022-10-21T05:38:53.740Z,100256.50
2022-10-21T05:41:21.117Z,100252.19
2022-10-21T05:43:48.367Z,100248.59
2022-10-21T05:46:15.657Z,100240.63
2022-10-21T05:48:42.877Z,100239.75
2022-10-21T05:51:10.051Z,100236.25
2022-10-21T05:53:37.350Z,100244.06
2022-10-21T05:56:08.075Z,100251.97
2022-10-21T05:58:36.228Z,100261.72
2022-10-21T06:01:03.862Z,100273.22
2022-10-21T06:03:33.543Z,100270.59
2022-10-21T06:06:04.997Z,100269.69
2022-10-21T06:08:35.642Z,100267.00
2022-10-21T06:11:14.324Z,100250.19
2022-10-21T06:13:42.012Z,100257.25
2022-10-21T06:16:11.847Z,100251.13
2022-10-21T06:18:41.114Z,100245.75
2022-10-21T06:21:09.932Z,100253.66
2022-10-21T06:23:37.505Z,100252.81
2022-10-21T06:26:13.109Z,100258.94
2022-10-21T06:28:42.073Z,100267.81
2022-10-21T06:31:14.500Z,100260.00
2022-10-21T06:33:42.117Z,100264.31
2022-10-21T06:36:10.041Z,100261.72
2022-10-21T06:38:38.217Z,100268.00
2022-10-21T06:41:13.152Z,100263.69
2022-10-21T06:43:42.478Z,100273.47
2022-10-21T06:46:15.510Z,100282.34
2022-10-21T06:48:43.328Z,100276.28
2022-10-21T06:51:19.692Z,100272.88
2022-10-21T06:53:52.008Z,100275.47
2022-10-21T06:56:20.321Z,100268.50
2022-10-21T06:58:49.655Z,100280.03
2022-10-21T07:01:34.974Z,100286.22
2022-10-21T07:04:10.295Z,100276.63
2022-10-21T07:06:37.957Z,100296.88
2022-10-21T07:09:07.960Z,100301.22
2022-10-21T07:11:35.919Z,100302.16
2022-10-21T07:14:03.266Z,100303.06
2022-10-21T07:16:35.101Z,100306.66
2022-10-21T07:19:03.657Z,100299.63
2022-10-21T07:21:32.005Z,100299.63
2022-10-21T07:24:00.724Z,100293.50
2022-10-21T07:26:32.267Z,100281.16
2022-10-21T07:29:00.931Z,100285.66
2022-10-21T07:31:32.852Z,100286.41
2022-10-21T07:34:01.814Z,100294.28
2022-10-21T07:36:34.050Z,100298.91
2022-10-21T07:39:08.829Z,100297.19
2022-10-21T07:41:44.407Z,100298.91
2022-10-21T07:44:11.869Z,100293.63
2022-10-21T07:46:44.270Z,100284.88
2022-10-21T07:49:13.205Z,100282.28
2022-10-21T07:51:41.301Z,100277.06
2022-10-21T07:54:08.942Z,100293.81
2022-10-21T07:56:42.120Z,100299.09
2022-10-21T07:59:13.187Z,100313.31
2022-10-21T08:01:47.303Z,100309.09
2022-10-21T08:04:21.867Z,100286.22
2022-10-21T08:06:49.650Z,100288.16
2022-10-21T08:09:17.687Z,100283.78
2022-10-21T08:11:45.371Z,100278.56
2022-10-21T08:14:13.459Z,100282.25
2022-10-21T08:16:41.637Z,100283.25
2022-10-21T08:19:17.557Z,100277.00
2022-10-21T08:21:44.709Z,100275.47
2022-10-21T08:24:11.993Z,100289.69
2022-10-21T08:26:39.224Z,100287.03
2022-10-21T08:29:06.617Z,100270.47
2022-10-21T08:31:33.854Z,100270.50
2022-10-21T08:34:01.221Z,100262.63
2022-10-21T08:36:28.423Z,100265.31
2022-10-21T08:38:55.740Z,100265.13
2022-10-21T08:41:28.895Z,100261.59
2022-10-21T08:44:26.105Z,100251.16
2022-10-21T08:47:25.113Z,100242.50
2022-10-21T08:50:06.208Z,100246.16
2022-10-21T08:53:00.469Z,100244.69
2022-10-21T08:55:41.611Z,100250.69
2022-10-21T08:58:22.254Z,100256.66
2022-10-21T09:01:14.944Z,100261.78
2022-10-21T09:03:48.339Z,100254.78
2022-10-21T09:06:34.541Z,100259.34
2022-10-21T09:09:10.531Z,100267.22
2022-10-21T09:12:22.798Z,100276.44
2022-10-21T09:15:10.426Z,100270.53
2022-10-21T09:17:42.006Z,100267.22
2022-10-21T09:20:34.301Z,100270.81
2022-10-21T09:23:53.291Z,100281.50
2022-10-21T09:26:37.380Z,100263.19
2022-10-21T09:29:41.244Z,100282.75
2022-10-21T09:32:28.085Z,100279.03
2022-10-21T09:35:35.250Z,100266.00
2022-10-21T09:38:32.633Z,100264.22
2022-10-21T09:41:03.374Z,100256.31
2022-10-21T09:43:31.414Z,100250.28
2022-10-21T09:45:59.035Z,100253.03
2022-10-21T09:49:16.343Z,100241.41
2022-10-21T09:51:38.987Z,100235.97
2022-10-21T09:54:22.991Z,100251.94
2022-10-21T09:57:13.012Z,100258.97
2022-10-21T09:59:58.720Z,100257.19
2022-10-21T10:02:36.743Z,100259.03
2022-10-21T10:05:47.884Z,100258.22
2022-10-21T10:08:29.186Z,100256.72
2022-10-21T10:11:11.689Z,100254.03
2022-10-21T10:13:50.436Z,100252.28
2022-10-21T10:16:29.793Z,100266.56
2022-10-21T10:19:20.458Z,100251.84
2022-10-21T10:22:10.300Z,100270.34
2022-10-21T10:24:40.684Z,100253.53
2022-10-21T10:27:26.619Z,100245.75
2022-10-21T10:29:58.637Z,100250.19
2022-10-21T10:32:32.545Z,100256.22
2022-10-21T10:35:04.993Z,100258.75
2022-10-21T10:37:36.957Z,100261.47
2022-10-21T10:40:09.199Z,100257.13
2022-10-21T10:42:44.770Z,100247.31
2022-10-21T10:45:20.362Z,100248.16
2022-10-21T10:48:03.175Z,100248.28
2022-10-21T10:50:49.257Z,100253.63
2022-10-21T10:53:37.809Z,100248.50
2022-10-21T10:56:39.985Z,100237.97
2022-10-21T10:59:34.154Z,100232.88
2022-10-21T11:02:10.116Z,100240.19
2022-10-21T11:05:28.662Z,100236.88
2022-10-21T11:08:04.681Z,100230.84
2022-10-21T11:10:47.697Z,100235.22
2022-10-21T11:13:19.970Z,100250.31
2022-10-21T11:16:50.464Z,100236.31
2022-10-21T11:19:57.206Z,100231.88
2022-10-21T11:23:27.850Z,100221.00
2022-10-21T11:26:25.465Z,100225.44
2022-10-21T11:29:23.629Z,100236.81
2022-10-21T11:32:21.597Z,100222.63
2022-10-21T11:35:48.288Z,100222.72
2022-10-21T11:38:48.553Z,100229.78
2022-10-21T11:41:45.603Z,100223.59
2022-10-21T11:44:39.762Z,100234.13
2022-10-21T11:47:44.537Z,100228.03
2022-10-21T11:50:34.781Z,100217.28
2022-10-21T11:53:46.102Z,100203.25
2022-10-21T11:56:38.429Z,100210.47
2022-10-21T12:00:10.762Z,100212.34
2022-10-21T12:03:11.319Z,100196.41
2022-10-21T12:05:55.550Z,100189.66
2022-10-21T12:08:41.204Z,100173.94
2022-10-21T12:11:20.849Z,100183.59
2022-10-21T12:14:36.354Z,100188.75
2022-10-21T12:17:12.979Z,100205.41
2022-10-21T12:19:41.050Z,100183.31
2022-10-21T12:22:11.032Z,100176.94
2022-10-21T12:24:58.393Z,100179.56
2022-10-21T12:28:34.612Z,100184.94
2022-10-21T12:31:26.913Z,100182.16
2022-10-21T12:33:54.703Z,100179.50
2022-10-21T12:36:25.581Z,100174.31
2022-10-21T12:38:55.293Z,100170.00
2022-10-21T12:41:36.701Z,100172.75
2022-10-21T12:44:05.484Z,100169.22
2022-10-21T12:47:01.906Z,100170.31
2022-10-21T12:49:35.886Z,100152.78
2022-10-21T12:52:02.873Z,100158.41
2022-10-21T12:54:41.414Z,100160.16
2022-10-21T12:57:23.847Z,100162.53
2022-10-21T12:59:51.074Z,100158.03
2022-10-21T13:02:28.283Z,100157.97
2022-10-21T13:04:57.437Z,100159.69
2022-10-21T13:07:31.665Z,100159.75
2022-10-21T13:09:58.624Z,100150.81
2022-10-21T13:12:29.260Z,100157.00
2022-10-21T13:15:21.949Z,100157.84
2022-10-21T13:17:57.709Z,100157.63
2022-10-21T13:20:24.720Z,100152.34
2022-10-21T13:23:03.576Z,100153.16
2022-10-21T13:25:36.160Z,100152.22
2022-10-21T13:28:13.554Z,100153.06
2022-10-21T13:30:59.921Z,100150.31
2022-10-21T13:33:38.515Z,100150.31
2022-10-21T13:36:14.238Z,100148.56
2022-10-21T13:38:51.426Z,100143.19
2022-10-21T13:41:29.349Z,100151.13
2022-10-21T13:44:07.346Z,100153.78
2022-10-21T13:46:43.558Z,100149.38
2022-10-21T13:49:51.364Z,100144.91
2022-10-21T13:52:18.791Z,100154.59
2022-10-21T13:54:46.286Z,100151.91
2022-10-21T13:57:19.592Z,100162.50
2022-10-21T13:59:59.791Z,100155.38
2022-10-21T14:02:27.255Z,100155.25
2022-10-21T14:04:54.460Z,100161.41
2022-10-21T14:07:21.929Z,100161.31
2022-10-21T14:09:58.663Z,100177.09
2022-10-21T14:12:43.918Z,100182.28
2022-10-21T14:15:24.350Z,100180.38
2022-10-21T14:17:58.026Z,100179.28
2022-10-21T14:20:38.116Z,100165.06
2022-10-21T14:23:16.053Z,100182.63
2022-10-21T14:25:43.554Z,100182.50
2022-10-21T14:28:13.880Z,100179.78
2022-10-21T14:30:42.643Z,100169.94
2022-10-21T14:33:17.872Z,100169.88
2022-10-21T14:35:45.051Z,100174.28
2022-10-21T14:38:38.841Z,100163.69
2022-10-21T14:41:15.229Z,100158.28
2022-10-21T14:43:45.772Z,100167.84
2022-10-21T14:46:13.577Z,100165.25
2022-10-21T14:48:59.753Z,100151.13
2022-10-21T14:51:27.768Z,100146.72
2022-10-21T14:53:59.416Z,100152.00
2022-10-21T14:56:40.365Z,100144.09
2022-10-21T14:59:25.583Z,100139.66
2022-10-21T15:01:53.325Z,100133.47
2022-10-21T15:04:51.349Z,100123.72
2022-10-21T15:07:39.139Z,100123.72
2022-10-21T15:10:07.164Z,100117.53
2022-10-21T15:12:47.112Z,100118.44
2022-10-21T15:15:54.272Z,100115.81
2022-10-21T15:18:36.497Z,100104.31
2022-10-21T15:21:05.648Z,100100.75
2022-10-21T15:23:37.305Z,100101.66
2022-10-21T15:26:21.359Z,100108.66
2022-10-21T15:28:49.884Z,100106.00
2022-10-21T15:31:29.153Z,100091.00
2022-10-21T15:33:58.617Z,100103.25
2022-10-21T15:36:25.865Z,100101.47
2022-10-21T15:38:54.675Z,100099.72
2022-10-21T15:41:25.450Z,100112.91
2022-10-21T15:44:16.459Z,100100.53
2022-10-21T15:46:46.939Z,100093.38
2022-10-21T15:49:24.736Z,100088.91
2022-10-21T15:51:52.194Z,100083.63
2022-10-21T15:54:20.851Z,100092.44
2022-10-21T15:56:52.973Z,100088.91
2022-10-21T15:59:25.584Z,100095.00
2022-10-21T16:01:54.180Z,100087.84
2022-10-21T16:04:22.625Z,100093.88
2022-10-21T16:06:52.230Z,100092.91
2022-10-21T16:09:29.359Z,100092.72
2022-10-21T16:12:00.500Z,100092.66
2022-10-21T16:14:30.740Z,100098.78
2022-10-21T16:16:59.544Z,100091.56
2022-10-21T16:19:28.031Z,100091.66
2022-10-21T16:21:55.999Z,100096.91
2022-10-21T16:24:23.461Z,100108.31
2022-10-21T16:26:50.907Z,100102.97
2022-10-21T16:29:25.288Z,100101.97
2022-10-21T16:31:53.586Z,100105.56
2022-10-21T16:34:20.867Z,100112.63
2022-10-21T16:36:48.214Z,100112.63
2022-10-21T16:39:24.214Z,100107.34
2022-10-21T16:41:52.308Z,100117.84
2022-10-21T16:44:19.751Z,100111.66
2022-10-21T16:46:55.174Z,100116.00
2022-10-21T16:49:28.062Z,100102.78
2022-10-21T16:51:57.460Z,100101.00
2022-10-21T16:54:24.737Z,100090.44
2022-10-21T16:56:55.014Z,100095.69
2022-10-21T16:59:23.481Z,100088.63
2022-10-21T17:01:51.516Z,100094.78
2022-10-21T17:04:18.909Z,100104.38
2022-10-21T17:06:46.157Z,100099.13
2022-10-21T17:09:13.445Z,100103.47
2022-10-21T17:11:42.461Z,100106.13
2022-10-21T17:14:20.281Z,100097.25
2022-10-21T17:16:47.787Z,100104.31
2022-10-21T17:19:15.781Z,100092.97
2022-10-21T17:21:44.008Z,100098.25
2022-10-21T17:24:18.159Z,100100.94
2022-10-21T17:26:45.704Z,100112.31
2022-10-21T17:29:13.145Z,100108.81
2022-10-21T17:31:42.799Z,100113.19
2022-10-21T17:34:28.253Z,100111.41
2022-10-21T17:36:55.815Z,100103.47
2022-10-21T17:39:24.083Z,100102.53
2022-10-21T17:41:51.502Z,100104.31
2022-10-21T17:44:19.678Z,100108.72
2022-10-21T17:46:49.325Z,100103.44
2022-10-21T17:49:16.560Z,100107.00
2022-10-21T17:51:43.720Z,100118.47
2022-10-21T17:54:11.165Z,100112.31
2022-10-21T17:56:38.392Z,100113.25
2022-10-21T17:59:05.556Z,100113.25
2022-10-21T18:01:32.912Z,100114.16
2022-10-21T18:04:00.309Z,100116.84
2022-10-21T18:06:28.057Z,100110.72
2022-10-21T18:08:58.452Z,100116.91
2022-10-21T18:11:26.143Z,100120.44
2022-10-21T18:13:55.223Z,100118.72
2022-10-21T18:16:24.093Z,100118.72
2022-10-21T18:18:56.082Z,100113.44
2022-10-21T18:21:25.792Z,100123.13
2022-10-21T18:23:54.327Z,100122.22
2022-10-21T18:26:29.349Z,100118.63
2022-10-21T18:29:01.177Z,100115.94
2022-10-21T18:31:33.322Z,100117.63
2022-10-21T18:34:03.924Z,100117.69
2022-10-21T18:36:32.551Z,100109.75
2022-10-21T18:39:01.286Z,100119.53
2022-10-21T18:41:28.578Z,100115.22
2022-10-21T18:44:07.976Z,100109.94
2022-10-21T18:46:39.956Z,100116.13
2022-10-21T18:49:13.496Z,100115.22
2022-10-21T18:51:41.403Z,100114.22
2022-10-21T18:54:09.686Z,100116.69
2022-10-21T18:56:37.100Z,100118.31
2022-10-21T18:59:05.739Z,100116.47
2022-10-21T19:01:33.034Z,100117.28
2022-10-21T19:04:00.619Z,100113.66
2022-10-21T19:06:46.208Z,100118.97
2022-10-21T19:09:18.939Z,100112.84
2022-10-21T19:11:47.568Z,100116.47
2022-10-21T19:14:16.557Z,100113.78
2022-10-21T19:16:46.825Z,100113.00
2022-10-21T19:19:16.636Z,100102.38
2022-10-21T19:21:51.684Z,100107.66
2022-10-21T19:24:19.027Z,100099.88
2022-10-21T19:26:58.144Z,100103.41
2022-10-21T19:29:27.837Z,100093.69
2022-10-21T19:31:56.834Z,100102.53
2022-10-21T19:34:28.030Z,100094.59
2022-10-21T19:36:55.375Z,100093.78
2022-10-21T19:39:22.615Z,100107.91
2022-10-21T19:41:49.896Z,100110.50
2022-10-21T19:44:17.781Z,100104.38
2022-10-21T19:46:45.422Z,100107.91
2022-10-21T19:49:15.009Z,100099.13
2022-10-21T19:51:42.904Z,100104.38
2022-10-21T19:54:13.177Z,100096.59
2022-10-21T19:56:41.179Z,100102.78
2022-10-21T19:59:09.798Z,100108.94
2022-10-21T20:01:40.258Z,100106.28
2022-10-21T20:04:07.545Z,100100.16
2022-10-21T20:06:37.681Z,100101.00
2022-10-21T20:09:15.148Z,100096.56
2022-10-21T20:11:43.002Z,100097.50
2022-10-21T20:14:15.061Z,100099.28
2022-10-21T20:16:43.514Z,100095.72
2022-10-21T20:19:12.912Z,100107.16
2022-10-21T20:21:43.603Z,100104.56
2022-10-21T20:24:17.879Z,100106.38
2022-10-21T20:26:49.959Z,100109.00
2022-10-21T20:29:18.941Z,100112.53
2022-10-21T20:31:48.530Z,100110.78
2022-10-21T20:34:16.722Z,100117.81
2022-10-21T20:36:44.890Z,100123.13
2022-10-21T20:39:13.363Z,100118.75
2022-10-21T20:41:40.720Z,100117.03
2022-10-21T20:44:16.242Z,100117.91
2022-10-21T20:46:45.308Z,100106.47
2022-10-21T20:49:13.045Z,100111.75
2022-10-21T20:51:44.283Z,100111.75
2022-10-21T20:54:20.213Z,100122.38
2022-10-21T20:56:47.467Z,100121.47
2022-10-21T20:59:16.284Z,100119.72
2022-10-21T21:01:46.798Z,100121.47
2022-10-21T21:04:17.793Z,100125.00
2022-10-21T21:06:50.156Z,100105.56
2022-10-21T21:12:08.047Z,100104.91
2022-10-21T21:14:35.280Z,100106.72
2022-10-21T21:17:02.610Z,100100.47
2022-10-21T21:19:29.867Z,100099.63
2022-10-21T21:21:57.419Z,100097.94
2022-10-21T21:24:25.816Z,100094.41
2022-10-21T21:26:53.005Z,100091.88
2022-10-21T21:29:20.220Z,100091.81
2022-10-21T21:31:47.419Z,100087.41
2022-10-21T21:34:14.939Z,100088.28
2022-10-21T21:36:42.105Z,100086.63
2022-10-21T21:39:10.995Z,100084.88
2022-10-21T21:41:38.460Z,100069.09
2022-10-21T21:44:06.212Z,100083.16
2022-10-21T21:46:33.700Z,100083.16
2022-10-21T21:49:06.113Z,100077.81
2022-10-21T21:51:36.581Z,100077.81
2022-10-21T21:54:07.579Z,100066.41
2022-10-21T21:56:35.577Z,100067.38
2022-10-21T21:59:02.976Z,100053.28
2022-10-21T22:01:30.401Z,100060.28
2022-10-21T22:03:58.501Z,100045.34
2022-10-21T22:06:32.218Z,100050.63
2022-10-21T22:09:01.462Z,100050.72
2022-10-21T22:11:32.601Z,100042.81
2022-10-21T22:14:00.360Z,100031.31
2022-10-21T22:16:30.158Z,100036.63
2022-10-21T22:19:00.624Z,100033.16
2022-10-21T22:21:30.226Z,100043.78
2022-10-21T22:23:57.785Z,100056.16
2022-10-21T22:26:26.828Z,100047.38
2022-10-21T22:28:54.682Z,100034.97
2022-10-21T22:31:27.343Z,100030.63
2022-10-21T22:34:00.823Z,100029.81
2022-10-21T22:36:28.783Z,100033.41
2022-10-21T22:38:56.080Z,100035.19
2022-10-21T22:41:23.333Z,100029.97
2022-10-21T22:43:50.509Z,100028.19
2022-10-21T22:46:34.602Z,100029.88
2022-10-21T22:49:05.835Z,100030.03
2022-10-21T22:51:34.140Z,100031.81
2022-10-21T22:54:01.692Z,100025.69
2022-10-21T22:56:28.976Z,100022.97
2022-10-21T22:58:57.463Z,100020.38
2022-10-21T23:01:30.120Z,100026.59
2022-10-21T23:04:04.050Z,100023.13
2022-10-21T23:06:34.428Z,100025.81
2022-10-21T23:09:04.247Z,100018.69
2022-10-21T23:11:31.789Z,100022.22
2022-10-21T23:14:03.452Z,100021.41
2022-10-21T23:16:37.057Z,100021.41
2022-10-21T23:19:07.956Z,100009.06
2022-10-21T23:21:36.831Z,100010.88
2022-10-21T23:24:05.467Z,100021.47
2022-10-21T23:26:32.917Z,100010.81
2022-10-21T23:29:00.193Z,99998.56
2022-10-21T23:31:27.512Z,99997.69
2022-10-21T23:33:54.737Z,99989.75
2022-10-21T23:36:22.025Z,99973.91
2022-10-21T23:38:49.417Z,99973.97
2022-10-21T23:41:16.670Z,99981.91
2022-10-21T23:43:43.998Z,99975.72
2022-10-21T23:46:11.283Z,99964.19
2022-10-21T23:48:38.601Z,99973.03
2022-10-21T23:51:06.221Z,99967.69
2022-10-21T23:53:33.598Z,99959.75
2022-10-21T23:56:00.849Z,99960.53
2022-10-21T23:58:28.171Z,99956.19
